Time;durP1;ratioP1;P1;durP2;ratioP2;P2;SDS_P1;SDS_P2;PMS_P1;PMS_P2;Temp;Humidity;BMP_temperature;BMP_pressure;BME280_temperature;BME280_humidity;BME280_pressure;Samples;Min_cycle;Max_cycle;Signal;HPM_P1;HPM_P2
2022/04/03 00:00:36;;;;;;;22.87;12.82;;;;;;;4.09;73.87;98920.59;4444052;32;33790;-65
2022/04/03 00:03:04;;;;;;;22.87;12.98;;;;;;;4.21;73.52;98922.09;4419135;32;33386;-64
2022/04/03 00:05:38;;;;;;;22.42;13.35;;;;;;;4.44;72.68;98923.34;4433068;32;33782;-64
2022/04/03 00:08:08;;;;;;;23.27;13.13;;;;;;;4.20;73.50;98928.03;4448972;32;34575;-64
2022/04/03 00:10:36;;;;;;;22.87;12.55;;;;;;;4.52;72.60;98928.13;4450150;32;33650;-64
2022/04/03 00:13:03;;;;;;;23.87;13.25;;;;;;;4.40;72.81;98932.56;4453435;32;33578;-64
2022/04/03 00:15:31;;;;;;;23.33;12.85;;;;;;;4.56;72.50;98929.16;4454664;32;33668;-64
2022/04/03 00:17:59;;;;;;;24.40;14.15;;;;;;;4.33;72.97;98935.59;4447562;32;33772;-64
2022/04/03 00:20:27;;;;;;;23.55;12.85;;;;;;;4.42;72.44;98933.50;4448828;32;33982;-64
2022/04/03 00:22:54;;;;;;;20.20;11.65;;;;;;;4.65;72.02;98933.91;4435773;32;33368;-64
2022/04/03 00:25:22;;;;;;;21.20;11.98;;;;;;;4.61;72.02;98935.41;4440197;32;34726;-65
2022/04/03 00:27:50;;;;;;;20.85;11.50;;;;;;;4.45;72.48;98946.53;4448457;32;34084;-64
2022/04/03 00:30:17;;;;;;;20.20;11.05;;;;;;;4.27;72.97;98940.41;4451935;32;34605;-65
2022/04/03 00:32:45;;;;;;;19.50;10.88;;;;;;;4.04;74.17;98946.78;4453306;32;33575;-64
2022/04/03 00:35:12;;;;;;;20.27;11.10;;;;;;;4.23;73.40;98951.25;4452010;32;33889;-64
2022/04/03 00:37:40;;;;;;;19.65;11.25;;;;;;;4.44;72.64;98949.91;4447882;32;34450;-64
2022/04/03 00:40:09;;;;;;;19.52;11.45;;;;;;;4.55;72.25;98952.16;4452664;32;34278;-65
2022/04/03 00:42:37;;;;;;;18.27;10.25;;;;;;;4.38;72.32;98954.66;4450950;32;33300;-65
2022/04/03 00:45:06;;;;;;;18.65;10.50;;;;;;;4.18;73.47;98957.81;4450463;32;33801;-64
2022/04/03 00:47:33;;;;;;;21.05;11.55;;;;;;;4.04;73.74;98963.03;4430674;32;33883;-64
2022/04/03 00:50:01;;;;;;;18.65;10.60;;;;;;;4.18;73.60;98962.94;4447154;32;33802;-65
2022/04/03 00:52:29;;;;;;;20.17;10.82;;;;;;;4.31;72.97;98963.72;4443535;32;33923;-64
2022/04/03 00:54:56;;;;;;;21.12;11.00;;;;;;;4.46;72.72;98957.66;4435450;32;33472;-64
2022/04/03 00:57:25;;;;;;;19.73;10.88;;;;;;;4.34;72.63;98968.12;4453927;32;33072;-65
2022/04/03 00:59:53;;;;;;;22.10;10.77;;;;;;;4.41;72.68;98967.66;4430307;32;34005;-64
2022/04/03 01:02:21;;;;;;;23.23;10.88;;;;;;;4.14;73.46;98975.56;4448993;32;33419;-64
2022/04/03 01:04:48;;;;;;;19.33;10.88;;;;;;;4.29;73.15;98974.69;4438045;32;33599;-64
2022/04/03 01:07:18;;;;;;;21.67;11.75;;;;;;;4.58;72.15;98975.38;4463619;32;33940;-65
2022/04/03 01:09:46;;;;;;;22.50;11.82;;;;;;;4.45;72.04;98986.69;4424292;32;33698;-64
2022/04/03 01:12:14;;;;;;;19.77;11.23;;;;;;;3.97;73.53;98981.41;4438842;32;34045;-66
2022/04/03 01:14:58;;;;;;;19.80;11.05;;;;;;;4.21;73.10;98983.59;4431531;32;34623;-64
2022/04/03 01:17:25;;;;;;;19.52;10.25;;;;;;;4.52;72.02;98984.53;4447404;32;34001;-65
2022/04/03 01:19:53;;;;;;;22.48;11.07;;;;;;;4.31;72.67;98989.34;4438706;32;34443;-65
2022/04/03 01:22:20;;;;;;;22.25;11.43;;;;;;;4.47;71.91;98988.50;4441448;32;33923;-64
2022/04/03 01:24:55;;;;;;;17.73;10.48;;;;;;;4.77;71.18;98990.13;4436272;32;33564;-64
2022/04/03 01:27:24;;;;;;;19.10;10.70;;;;;;;4.73;70.91;98989.97;4429420;32;33773;-64
2022/04/03 01:29:52;;;;;;;21.87;11.38;;;;;;;4.74;70.91;98990.84;4443892;32;34494;-65
2022/04/03 01:32:20;;;;;;;21.05;11.48;;;;;;;4.53;71.50;98991.41;4432310;32;34157;-64
2022/04/03 01:34:48;;;;;;;19.62;11.05;;;;;;;4.56;71.41;98995.84;4431840;32;33807;-64
2022/04/03 01:37:15;;;;;;;20.75;11.20;;;;;;;4.49;71.79;98994.59;4443908;32;33885;-65
2022/04/03 01:39:43;;;;;;;21.45;11.50;;;;;;;4.55;71.69;98995.75;4436533;32;33988;-64
2022/04/03 01:42:10;;;;;;;24.20;13.45;;;;;;;4.57;71.57;98996.72;4432353;32;34121;-64
2022/04/03 01:44:38;;;;;;;25.92;13.23;;;;;;;4.55;71.78;99003.47;4437672;32;34615;-64
2022/04/03 01:47:05;;;;;;;28.65;15.63;;;;;;;4.47;71.99;99011.59;4435632;32;33627;-65
2022/04/03 01:49:33;;;;;;;30.08;15.90;;;;;;;4.56;71.72;99011.25;4441617;32;33432;-64
2022/04/03 01:52:00;;;;;;;30.45;16.33;;;;;;;4.77;71.14;99011.53;4434463;32;33237;-65
2022/04/03 01:54:28;;;;;;;21.33;11.77;;;;;;;4.80;71.11;99016.81;4429013;32;33762;-65
2022/04/03 01:56:55;;;;;;;22.45;12.68;;;;;;;4.88;70.77;99020.69;4434215;32;34008;-64
2022/04/03 01:59:23;;;;;;;29.25;13.52;;;;;;;4.76;71.12;99027.72;4435146;32;31609;-64
2022/04/03 02:01:50;;;;;;;24.37;12.77;;;;;;;4.55;71.23;99029.09;4443425;32;33597;-64
2022/04/03 02:04:18;;;;;;;26.58;13.10;;;;;;;4.39;71.62;99025.69;4441747;32;33546;-64
2022/04/03 02:06:46;;;;;;;28.40;14.87;;;;;;;4.50;71.47;99026.25;4440112;32;33843;-64
2022/04/03 02:09:14;;;;;;;26.87;13.98;;;;;;;4.64;71.21;99034.75;4446621;32;34105;-64
2022/04/03 02:11:41;;;;;;;23.30;12.37;;;;;;;4.63;71.37;99038.09;4462004;32;34200;-65
2022/04/03 02:14:09;;;;;;;21.15;11.80;;;;;;;4.90;70.18;99034.47;4454839;32;33456;-65
2022/04/03 02:16:36;;;;;;;26.37;13.70;;;;;;;4.92;69.95;99039.72;4445355;32;34524;-65
2022/04/03 02:19:04;;;;;;;31.00;15.18;;;;;;;4.89;70.25;99043.00;4456121;32;34061;-64
2022/04/03 02:21:32;;;;;;;26.95;14.40;;;;;;;4.25;72.05;99039.38;4457846;32;33677;-64
2022/04/03 02:23:59;;;;;;;29.65;14.90;;;;;;;4.29;73.02;99043.91;4448365;32;34626;-65
2022/04/03 02:26:27;;;;;;;26.92;14.32;;;;;;;3.47;74.50;99043.34;4443010;32;33949;-65
2022/04/03 02:28:55;;;;;;;25.35;12.48;;;;;;;2.90;78.44;99038.19;4446473;32;34815;-65
2022/04/03 02:31:22;;;;;;;22.48;11.82;;;;;;;4.17;73.18;99038.06;4444522;32;33216;-65
2022/04/03 02:33:50;;;;;;;17.65;9.77;;;;;;;4.03;72.95;99045.81;4463598;32;34674;-65
2022/04/03 02:36:17;;;;;;;18.98;9.38;;;;;;;4.06;72.09;99043.47;4457389;32;33936;-65
2022/04/03 02:38:45;;;;;;;21.52;10.68;;;;;;;4.32;71.99;99051.75;4446011;32;34434;-65
2022/04/03 02:41:12;;;;;;;21.25;10.10;;;;;;;4.35;71.84;99051.94;4449306;32;33946;-65
2022/04/03 02:43:46;;;;;;;22.13;10.82;;;;;;;4.64;70.79;99060.41;4456879;32;32801;-66
2022/04/03 02:46:14;;;;;;;16.90;9.43;;;;;;;4.63;71.04;99061.19;4453336;32;34370;-65
2022/04/03 02:48:41;;;;;;;17.27;9.82;;;;;;;4.41;72.25;99062.53;4446989;32;34755;-64
2022/04/03 02:51:09;;;;;;;17.25;9.27;;;;;;;4.40;72.14;99071.00;4447961;32;33369;-65
2022/04/03 02:53:37;;;;;;;15.82;8.45;;;;;;;3.46;75.54;99078.31;4454448;32;33746;-64
2022/04/03 02:56:05;;;;;;;16.42;8.38;;;;;;;4.45;72.51;99074.75;4454351;32;33651;-64
2022/04/03 02:58:33;;;;;;;19.95;8.10;;;;;;;4.07;73.03;99075.09;4444987;32;33934;-64
2022/04/03 03:01:00;;;;;;;13.55;7.00;;;;;;;4.83;70.55;99083.72;4449991;32;33376;-65
2022/04/03 03:03:27;;;;;;;12.65;6.53;;;;;;;3.62;75.10;99085.25;4450893;32;33848;-65
2022/04/03 03:05:55;;;;;;;13.60;6.78;;;;;;;3.64;75.11;99090.47;4458535;32;33801;-66
2022/04/03 03:08:23;;;;;;;13.40;6.22;;;;;;;4.05;73.46;99087.81;4459594;32;34819;-65
2022/04/03 03:10:51;;;;;;;9.05;5.60;;;;;;;4.65;71.37;99083.56;4454842;32;34397;-65
2022/04/03 03:13:18;;;;;;;7.87;4.60;;;;;;;4.22;72.59;99087.91;4449152;32;33809;-65
2022/04/03 03:15:46;;;;;;;8.15;4.80;;;;;;;3.85;73.84;99098.56;4442649;32;35222;-66
2022/04/03 03:18:13;;;;;;;11.30;5.47;;;;;;;3.91;73.14;99106.63;4454734;32;32607;-65
2022/04/03 03:20:41;;;;;;;9.57;5.65;;;;;;;3.93;72.93;99112.72;4440892;32;32014;-66
2022/04/03 03:23:09;;;;;;;7.97;4.78;;;;;;;4.29;71.76;99110.56;4447583;32;33802;-66
2022/04/03 03:25:36;;;;;;;10.73;6.05;;;;;;;4.26;71.92;99115.50;4440077;32;33776;-64
2022/04/03 03:28:05;;;;;;;11.93;6.28;;;;;;;4.18;72.14;99109.91;4451421;32;33998;-65
2022/04/03 03:30:33;;;;;;;10.90;6.07;;;;;;;3.83;73.49;99120.66;4456283;32;33494;-65
2022/04/03 03:33:02;;;;;;;12.43;6.40;;;;;;;3.24;75.88;99126.41;4442696;32;33172;-65
2022/04/03 03:35:30;;;;;;;11.68;6.03;;;;;;;3.85;73.85;99134.44;4452220;32;33947;-65
2022/04/03 03:37:57;;;;;;;10.07;5.80;;;;;;;4.97;69.34;99133.25;4456289;32;33762;-66
2022/04/03 03:40:25;;;;;;;11.30;5.78;;;;;;;3.96;72.84;99135.97;4459825;32;34203;-66
2022/04/03 03:42:56;;;;;;;10.55;5.45;;;;;;;5.09;68.50;99135.62;4449956;32;33653;-65
2022/04/03 03:45:24;;;;;;;8.52;4.80;;;;;;;4.97;68.33;99140.94;4453433;32;33430;-65
2022/04/03 03:47:51;;;;;;;8.90;5.28;;;;;;;5.03;68.19;99142.97;4444552;32;33908;-65
2022/04/03 03:50:19;;;;;;;9.95;5.72;;;;;;;5.04;67.96;99145.63;4445905;32;33342;-64
2022/04/03 03:52:47;;;;;;;8.07;4.50;;;;;;;4.41;70.22;99139.47;4449197;32;34010;-65
2022/04/03 03:55:15;;;;;;;9.27;5.12;;;;;;;4.10;71.58;99153.03;4433008;32;33221;-64
2022/04/03 03:57:46;;;;;;;10.55;5.60;;;;;;;4.03;72.10;99156.03;4429009;32;34900;-65
2022/04/03 04:00:15;;;;;;;10.23;5.62;;;;;;;3.88;72.69;99162.78;4447912;32;33159;-64
2022/04/03 04:02:42;;;;;;;8.80;5.10;;;;;;;3.63;73.85;99163.88;4461332;32;33684;-65
2022/04/03 04:05:10;;;;;;;10.55;6.43;;;;;;;3.72;73.83;99168.66;4430576;32;32186;-64
2022/04/03 04:07:42;;;;;;;12.15;5.75;;;;;;;3.72;74.07;99172.09;4467210;32;33937;-64
2022/04/03 04:10:14;;;;;;;12.10;6.00;;;;;;;3.33;74.89;99176.50;4453229;32;33079;-64
2022/04/03 04:12:43;;;;;;;12.80;5.82;;;;;;;3.03;76.69;99175.44;4449714;32;33812;-65
2022/04/03 04:15:12;;;;;;;10.65;5.57;;;;;;;3.62;74.55;99182.56;4452274;32;33773;-64
2022/04/03 04:17:44;;;;;;;9.55;5.82;;;;;;;3.65;74.46;99187.91;4459849;32;34204;-64
2022/04/03 04:20:17;;;;;;;11.70;5.85;;;;;;;3.74;74.20;99190.12;4446187;32;33584;-64
2022/04/03 04:22:46;;;;;;;11.15;6.10;;;;;;;3.36;74.89;99188.59;4445164;32;33294;-64
2022/04/03 04:25:14;;;;;;;11.93;6.22;;;;;;;3.78;73.50;99193.75;4456128;32;34221;-64
2022/04/03 04:27:44;;;;;;;11.73;6.25;;;;;;;3.38;74.89;99199.84;4452639;32;34512;-65
2022/04/03 04:30:13;;;;;;;11.32;6.03;;;;;;;3.65;74.37;99213.50;4454949;32;33160;-64
2022/04/03 04:32:41;;;;;;;9.85;5.68;;;;;;;3.48;75.17;99214.13;4447453;32;33798;-64
2022/04/03 04:35:09;;;;;;;11.45;6.30;;;;;;;3.42;75.27;99211.16;4452100;32;33876;-64
2022/04/03 04:37:36;;;;;;;13.35;6.55;;;;;;;3.21;75.98;99216.69;4444415;32;33505;-65
2022/04/03 04:40:05;;;;;;;12.43;6.82;;;;;;;2.10;80.30;99227.25;4452601;32;33204;-64
2022/04/03 04:42:33;;;;;;;12.43;6.85;;;;;;;1.47;85.10;99239.81;4449610;32;33749;-65
2022/04/03 04:45:04;;;;;;;12.55;6.75;;;;;;;1.78;84.51;99237.81;4430750;32;33225;-64
2022/04/03 04:47:36;;;;;;;11.85;6.20;;;;;;;1.69;86.02;99238.03;4433239;32;32196;-64
2022/04/03 04:50:10;;;;;;;14.23;6.68;;;;;;;2.42;82.75;99243.03;4409489;32;31713;-64
2022/04/03 04:52:38;;;;;;;12.57;7.27;;;;;;;2.68;82.03;99249.88;4437055;32;33007;-64
2022/04/03 04:55:06;;;;;;;12.65;7.12;;;;;;;2.71;80.89;99255.19;4442841;32;32504;-65
2022/04/03 04:57:35;;;;;;;12.40;6.62;;;;;;;3.18;78.61;99248.88;4451722;32;33794;-64
2022/04/03 05:00:08;;;;;;;11.90;6.68;;;;;;;2.24;81.51;99255.41;4446895;32;31877;-65
2022/04/03 05:02:36;;;;;;;12.55;6.90;;;;;;;2.73;82.14;99269.84;4434135;32;32490;-65
2022/04/03 05:05:05;;;;;;;12.63;6.57;;;;;;;3.04;79.68;99266.78;4451025;32;34025;-64
2022/04/03 05:07:34;;;;;;;10.52;5.90;;;;;;;3.10;78.53;99273.97;4451479;32;33772;-65
2022/04/03 05:10:03;;;;;;;12.05;6.05;;;;;;;3.45;77.57;99275.38;4443458;32;34073;-65
2022/04/03 05:12:37;;;;;;;10.35;5.93;;;;;;;3.77;75.68;99273.94;4452258;32;32371;-66
2022/04/03 05:15:08;;;;;;;12.70;6.43;;;;;;;2.13;81.90;99278.56;4446360;32;33829;-66
2022/04/03 05:17:35;;;;;;;12.93;7.32;;;;;;;2.23;83.71;99282.66;4441018;32;33958;-65
2022/04/03 05:20:03;;;;;;;11.38;6.35;;;;;;;1.59;85.99;99289.22;4447914;32;34008;-65
2022/04/03 05:22:31;;;;;;;11.63;6.25;;;;;;;1.75;86.08;99289.53;4429077;32;33851;-65
2022/04/03 05:24:59;;;;;;;12.20;6.78;;;;;;;1.96;85.98;99289.28;4444301;32;34650;-65
2022/04/03 05:27:27;;;;;;;14.75;5.60;;;;;;;1.63;86.89;99298.88;4450606;32;33901;-64
2022/04/03 05:29:55;;;;;;;11.12;5.87;;;;;;;1.56;86.85;99302.66;4436873;32;33197;-65
2022/04/03 05:32:30;;;;;;;11.93;5.47;;;;;;;1.46;88.07;99304.44;4432747;32;34011;-64
2022/04/03 05:34:59;;;;;;;11.48;5.45;;;;;;;1.75;86.66;99299.75;4452479;32;34602;-65
2022/04/03 05:37:26;;;;;;;11.23;6.28;;;;;;;1.12;89.32;99310.50;4445492;32;34725;-65
2022/04/03 05:39:54;;;;;;;11.30;6.00;;;;;;;1.34;89.02;99323.16;4449914;32;33989;-65
2022/04/03 05:42:21;;;;;;;10.07;5.70;;;;;;;1.65;87.69;99317.75;4449689;32;34605;-65
2022/04/03 05:44:50;;;;;;;12.68;5.65;;;;;;;1.30;88.95;99328.81;4448456;32;33570;-65
2022/04/03 05:47:17;;;;;;;12.77;5.82;;;;;;;1.77;87.66;99328.81;4452539;32;34399;-65
2022/04/03 05:49:45;;;;;;;14.93;6.20;;;;;;;1.59;87.95;99327.50;4434291;32;33406;-66
2022/04/03 05:52:13;;;;;;;11.30;6.30;;;;;;;1.91;87.31;99326.38;4428849;32;33620;-65
2022/04/03 05:54:40;;;;;;;12.02;6.47;;;;;;;1.69;87.25;99335.06;4447380;32;33776;-66
2022/04/03 05:57:10;;;;;;;11.82;6.80;;;;;;;1.77;87.89;99333.94;4446700;32;33861;-64
2022/04/03 05:59:37;;;;;;;12.98;7.25;;;;;;;1.49;87.99;99337.84;4436974;32;33350;-65
2022/04/03 06:02:07;;;;;;;15.75;8.32;;;;;;;1.96;87.92;99345.47;4450037;32;34374;-65
2022/04/03 06:04:35;;;;;;;16.25;9.20;;;;;;;1.58;89.05;99346.16;4433936;32;33996;-66
2022/04/03 06:07:02;;;;;;;15.27;8.02;;;;;;;1.72;88.04;99345.50;4431148;32;32287;-66
2022/04/03 06:09:30;;;;;;;16.45;8.90;;;;;;;2.43;84.26;99350.47;4453290;32;33413;-66
2022/04/03 06:11:57;;;;;;;16.10;10.23;;;;;;;2.33;85.05;99358.28;4446161;32;34701;-66
2022/04/03 06:14:25;;;;;;;16.35;9.52;;;;;;;2.00;85.44;99357.69;4440971;32;31712;-65
2022/04/03 06:16:52;;;;;;;16.45;10.13;;;;;;;1.46;87.68;99360.56;4458591;32;33652;-64
2022/04/03 06:19:20;;;;;;;18.70;9.48;;;;;;;1.52;87.91;99366.13;4441233;32;33143;-65
2022/04/03 06:21:47;;;;;;;19.27;9.98;;;;;;;2.48;84.93;99363.59;4440944;32;34436;-64
2022/04/03 06:24:15;;;;;;;16.92;10.35;;;;;;;2.06;84.39;99372.56;4450407;32;33871;-65
2022/04/03 06:26:43;;;;;;;21.35;11.68;;;;;;;1.89;85.62;99367.16;4458386;32;34067;-64
2022/04/03 06:29:12;;;;;;;21.83;9.85;;;;;;;2.56;83.33;99368.44;4446759;32;34486;-64
2022/04/03 06:31:39;;;;;;;19.17;10.30;;;;;;;3.14;80.37;99376.63;4445199;32;33860;-65
2022/04/03 06:34:07;;;;;;;17.75;9.73;;;;;;;2.62;81.15;99382.44;4455400;32;34122;-64
2022/04/03 06:36:35;;;;;;;19.58;10.23;;;;;;;2.39;83.07;99376.59;4444659;32;33792;-65
2022/04/03 06:39:02;;;;;;;17.75;10.48;;;;;;;2.48;82.39;99384.91;4445460;32;33558;-66
2022/04/03 06:41:30;;;;;;;15.65;8.65;;;;;;;2.66;82.21;99394.66;4444803;32;33734;-65
2022/04/03 06:43:59;;;;;;;24.08;11.65;;;;;;;2.68;80.97;99393.06;4457301;32;34408;-64
2022/04/03 06:46:26;;;;;;;19.52;8.63;;;;;;;2.60;81.62;99389.09;4436452;32;34279;-64
2022/04/03 06:48:57;;;;;;;17.08;9.93;;;;;;;2.61;81.12;99401.09;4440509;32;32068;-65
2022/04/03 06:51:24;;;;;;;23.48;11.70;;;;;;;2.55;81.56;99407.59;4457226;32;34561;-64
2022/04/03 06:53:52;;;;;;;24.02;11.90;;;;;;;2.43;82.74;99405.81;4452164;32;33948;-66
2022/04/03 06:56:19;;;;;;;22.50;12.10;;;;;;;2.61;81.99;99406.22;4457361;32;33895;-63
2022/04/03 06:58:47;;;;;;;25.27;13.10;;;;;;;2.85;81.60;99418.16;4450051;32;34057;-64
2022/04/03 07:01:14;;;;;;;27.55;12.80;;;;;;;2.80;81.73;99419.53;4447719;32;34784;-65
2022/04/03 07:03:42;;;;;;;22.80;12.10;;;;;;;2.90;80.90;99419.38;4457686;32;33556;-64
2022/04/03 07:06:10;;;;;;;29.40;15.70;;;;;;;2.69;80.86;99420.44;4440039;32;33739;-64
2022/04/03 07:08:37;;;;;;;26.05;14.02;;;;;;;2.61;82.82;99426.66;4450952;32;34283;-63
2022/04/03 07:11:05;;;;;;;28.02;16.40;;;;;;;2.72;81.89;99426.66;4435340;32;33933;-64
2022/04/03 07:13:32;;;;;;;29.87;16.10;;;;;;;2.84;81.94;99436.84;4440030;32;32547;-63
2022/04/03 07:16:00;;;;;;;25.40;14.32;;;;;;;2.89;81.88;99440.59;4435631;32;33131;-63
2022/04/03 07:18:30;;;;;;;35.67;18.25;;;;;;;2.60;81.39;99440.25;4446267;32;33896;-63
2022/04/03 07:20:58;;;;;;;37.05;19.75;;;;;;;2.19;82.82;99448.44;4439371;32;32254;-64
2022/04/03 07:23:26;;;;;;;31.12;16.73;;;;;;;1.88;83.21;99454.75;4454141;32;34351;-64
2022/04/03 07:25:53;;;;;;;37.17;18.02;;;;;;;1.93;83.15;99447.41;4455401;32;33637;-65
2022/04/03 07:28:22;;;;;;;34.30;17.87;;;;;;;2.11;83.74;99464.09;4444913;32;33956;-64
2022/04/03 07:30:50;;;;;;;27.77;15.13;;;;;;;2.14;82.21;99469.44;4451094;32;33896;-63
2022/04/03 07:33:21;;;;;;;37.42;19.77;;;;;;;2.03;82.36;99475.44;4449636;32;34009;-63
2022/04/03 07:35:48;;;;;;;33.38;17.50;;;;;;;2.09;82.79;99486.09;4449078;32;32153;-64
2022/04/03 07:38:16;;;;;;;34.90;19.20;;;;;;;2.13;81.95;99488.06;4451712;32;33939;-62
2022/04/03 07:40:48;;;;;;;35.38;19.15;;;;;;;2.28;81.82;99495.06;4453679;32;34022;-63
2022/04/03 07:43:22;;;;;;;28.95;15.00;;;;;;;2.41;81.77;99489.19;4445120;32;33653;-65
2022/04/03 07:45:50;;;;;;;32.50;16.60;;;;;;;2.20;81.09;99494.50;4448066;32;33791;-64
2022/04/03 07:48:17;;;;;;;35.17;17.50;;;;;;;1.85;81.92;99497.94;4460093;32;33218;-65
2022/04/03 07:50:45;;;;;;;28.70;15.10;;;;;;;2.06;82.56;99505.41;4468032;32;33838;-64
2022/04/03 07:53:13;;;;;;;27.62;16.62;;;;;;;2.31;79.80;99511.50;4455309;32;33566;-64
2022/04/03 07:55:41;;;;;;;29.98;16.25;;;;;;;2.20;81.87;99514.06;4450736;32;33603;-64
2022/04/03 07:58:08;;;;;;;29.58;15.95;;;;;;;2.55;80.55;99511.53;4452123;32;34233;-64
2022/04/03 08:00:36;;;;;;;30.05;16.85;;;;;;;2.64;78.87;99518.94;4454990;32;32070;-65
2022/04/03 08:03:04;;;;;;;29.12;15.98;;;;;;;2.79;79.39;99524.28;4444911;32;34033;-63
2022/04/03 08:05:31;;;;;;;26.10;16.52;;;;;;;2.81;78.00;99526.16;4452736;32;33650;-64
2022/04/03 08:07:59;;;;;;;22.83;12.50;;;;;;;2.35;79.56;99536.53;4433685;32;34047;-64
2022/04/03 08:10:27;;;;;;;32.25;16.40;;;;;;;2.56;77.00;99537.19;4446801;32;33827;-65
2022/04/03 08:12:54;;;;;;;26.65;15.32;;;;;;;2.80;78.17;99532.06;4433359;32;34182;-65
2022/04/03 08:15:22;;;;;;;27.30;14.95;;;;;;;3.10;75.47;99532.44;4449905;32;33946;-63
2022/04/03 08:17:50;;;;;;;25.23;15.07;;;;;;;3.06;74.81;99545.81;4456752;32;34178;-65
2022/04/03 08:20:18;;;;;;;26.02;13.98;;;;;;;3.12;74.46;99536.87;4432877;32;33847;-65
2022/04/03 08:22:47;;;;;;;25.20;13.75;;;;;;;2.94;75.86;99550.94;4436450;32;32516;-66
2022/04/03 08:25:15;;;;;;;23.67;13.80;;;;;;;2.85;75.66;99552.84;4447408;32;34138;-65
2022/04/03 08:27:45;;;;;;;25.10;15.48;;;;;;;2.93;76.62;99557.72;4441289;32;33840;-64
2022/04/03 08:30:16;;;;;;;24.10;13.15;;;;;;;2.85;76.75;99561.41;4429785;32;33804;-63
2022/04/03 08:32:44;;;;;;;19.75;10.48;;;;;;;2.90;75.54;99565.19;4454387;32;34827;-64
2022/04/03 08:35:12;;;;;;;23.45;13.45;;;;;;;2.80;73.76;99565.31;4437650;32;33751;-65
2022/04/03 08:37:39;;;;;;;24.85;10.68;;;;;;;3.08;75.02;99573.25;4448574;32;33901;-65
2022/04/03 08:40:09;;;;;;;23.00;13.25;;;;;;;2.85;74.18;99581.87;4440154;32;33595;-65
2022/04/03 08:42:38;;;;;;;21.60;12.32;;;;;;;2.65;75.94;99582.13;4449528;32;33701;-64
2022/04/03 08:45:11;;;;;;;18.25;9.38;;;;;;;2.73;75.01;99581.00;4444656;32;34779;-64
2022/04/03 08:47:52;;;;;;;21.45;12.25;;;;;;;2.73;74.61;99586.12;4444183;32;33205;-64
2022/04/03 08:50:24;;;;;;;17.95;11.20;;;;;;;2.62;74.25;99587.00;4445486;32;34437;-62
2022/04/03 08:52:53;;;;;;;26.37;13.10;;;;;;;2.59;74.19;99586.75;4438193;32;32552;-64
2022/04/03 08:55:21;;;;;;;21.77;12.77;;;;;;;2.47;75.33;99591.88;4451697;32;34166;-62
2022/04/03 08:57:51;;;;;;;21.23;13.32;;;;;;;2.90;74.83;99577.97;4444655;32;33261;-64
2022/04/03 09:00:19;;;;;;;13.30;9.73;;;;;;;2.87;75.10;99594.78;4442883;32;34138;-65
2022/04/03 09:02:47;;;;;;;27.40;15.00;;;;;;;2.72;73.61;99594.56;4464983;32;33494;-65
2022/04/03 09:05:14;;;;;;;24.98;12.95;;;;;;;2.80;75.63;99596.00;4465785;32;33715;-64
2022/04/03 09:07:43;;;;;;;24.75;13.85;;;;;;;3.26;72.61;99586.44;4467835;32;33556;-65
2022/04/03 09:10:13;;;;;;;25.52;13.77;;;;;;;3.73;72.20;99586.31;4465418;32;33805;-64
2022/04/03 09:12:48;;;;;;;22.60;14.48;;;;;;;3.68;74.24;99581.66;4466151;32;33603;-64
2022/04/03 09:15:18;;;;;;;21.33;12.13;;;;;;;3.85;72.99;99585.38;4464245;32;34458;-64
2022/04/03 09:17:49;;;;;;;24.77;14.10;;;;;;;3.87;71.47;99592.34;4453738;32;33374;-64
2022/04/03 09:20:24;;;;;;;26.90;15.05;;;;;;;3.64;71.95;99590.78;4454292;32;33613;-64
2022/04/03 09:22:54;;;;;;;23.38;13.32;;;;;;;3.93;73.78;99599.56;4440070;32;32317;-64
2022/04/03 09:25:28;;;;;;;29.63;14.55;;;;;;;4.65;70.68;99601.75;4455162;32;33465;-64
2022/04/03 09:27:58;;;;;;;21.62;13.07;;;;;;;4.89;68.99;99605.03;4453759;32;34333;-64
2022/04/03 09:30:31;;;;;;;20.37;11.82;;;;;;;4.83;66.19;99596.03;4440832;32;34561;-64
2022/04/03 09:33:00;;;;;;;25.27;13.15;;;;;;;4.52;68.07;99600.09;4433531;32;32457;-63
2022/04/03 09:35:29;;;;;;;26.80;14.18;;;;;;;4.81;69.17;99608.81;4453684;32;33386;-64
2022/04/03 09:38:10;;;;;;;21.30;12.43;;;;;;;5.19;69.30;99612.91;4454675;32;33540;-63
2022/04/03 09:40:40;;;;;;;23.75;12.52;;;;;;;5.25;69.81;99613.31;4456411;32;34336;-64
2022/04/03 09:43:12;;;;;;;23.02;13.23;;;;;;;4.17;69.05;99604.56;4456564;32;34766;-64
2022/04/03 09:45:50;;;;;;;21.62;11.65;;;;;;;4.45;69.19;99610.75;4456442;32;34028;-65
2022/04/03 09:48:35;;;;;;;24.67;11.73;;;;;;;4.90;68.31;99622.19;4431586;32;32999;-64
2022/04/03 09:51:22;;;;;;;25.70;11.85;;;;;;;4.98;67.27;99621.81;4442353;32;33752;-64
2022/04/03 09:54:01;;;;;;;15.02;9.32;;;;;;;4.66;67.51;99618.94;4436940;32;33667;-63
2022/04/03 09:56:31;;;;;;;19.65;11.40;;;;;;;4.60;66.18;99623.69;4448244;32;33855;-64
2022/04/03 09:59:04;;;;;;;22.55;12.48;;;;;;;5.20;66.60;99627.53;4446023;32;33208;-64
2022/04/03 10:01:34;;;;;;;20.60;11.35;;;;;;;5.44;67.57;99624.72;4447598;32;33992;-65
2022/04/03 10:04:04;;;;;;;22.02;11.75;;;;;;;5.24;65.07;99634.63;4452187;32;33849;-64
2022/04/03 10:06:32;;;;;;;20.52;12.50;;;;;;;5.58;64.06;99634.19;4453819;32;33649;-64
2022/04/03 10:09:00;;;;;;;21.48;10.73;;;;;;;5.30;63.33;99627.31;4439545;32;31695;-63
2022/04/03 10:11:29;;;;;;;20.42;12.07;;;;;;;5.09;62.88;99620.81;4449199;32;33986;-64
2022/04/03 10:13:57;;;;;;;21.35;11.15;;;;;;;5.25;63.51;99626.16;4438069;32;32989;-63
2022/04/03 10:16:25;;;;;;;19.65;11.12;;;;;;;5.29;63.20;99635.81;4449186;32;33608;-64
2022/04/03 10:18:53;;;;;;;18.75;11.20;;;;;;;5.58;62.67;99644.47;4452374;32;34148;-64
2022/04/03 10:21:29;;;;;;;18.50;9.07;;;;;;;5.28;62.57;99646.88;4443348;32;34433;-64
2022/04/03 10:24:02;;;;;;;18.02;9.05;;;;;;;5.69;60.46;99635.69;4437436;32;33943;-64
2022/04/03 10:26:34;;;;;;;19.77;10.48;;;;;;;5.76;59.65;99631.84;4438518;32;33755;-63
2022/04/03 10:29:06;;;;;;;15.55;8.82;;;;;;;5.62;57.59;99641.28;4431537;32;33266;-65
2022/04/03 10:31:34;;;;;;;20.85;10.77;;;;;;;5.40;59.18;99644.19;4439110;32;34701;-64
2022/04/03 10:34:01;;;;;;;21.73;11.18;;;;;;;5.63;62.74;99647.28;4440146;32;33897;-65
2022/04/03 10:36:30;;;;;;;20.85;11.35;;;;;;;5.65;61.85;99659.44;4439838;32;34528;-64
2022/04/03 10:39:06;;;;;;;14.40;9.23;;;;;;;5.90;60.88;99658.37;4460250;32;33671;-63
2022/04/03 10:41:39;;;;;;;17.25;9.35;;;;;;;5.86;57.11;99641.00;4450369;32;33770;-64
2022/04/03 10:44:18;;;;;;;17.40;10.45;;;;;;;5.86;59.64;99646.12;4449556;32;33432;-64
2022/04/03 10:47:01;;;;;;;18.90;10.85;;;;;;;5.73;58.09;99654.78;4452221;32;33826;-63
2022/04/03 10:49:29;;;;;;;23.62;9.35;;;;;;;5.87;59.59;99663.31;4457238;32;33306;-63
2022/04/03 10:52:05;;;;;;;20.30;9.82;;;;;;;5.54;56.66;99655.31;4438047;32;33922;-64
2022/04/03 10:54:35;;;;;;;;;;;;;;;5.40;58.77;99657.03;4417074;32;33606;-64
2022/04/03 10:57:43;;;;;;;22.10;10.95;;;;;;;5.23;59.95;99666.22;4441559;32;34689;-63
2022/04/03 11:00:13;;;;;;;17.40;10.70;;;;;;;6.03;56.50;99640.38;4457856;32;34086;-64
2022/04/03 11:02:49;;;;;;;19.77;9.85;;;;;;;5.88;55.88;99650.56;4449407;32;33959;-64
2022/04/03 11:05:25;;;;;;;13.93;9.23;;;;;;;6.37;58.55;99662.94;4448635;32;34784;-64
2022/04/03 11:08:13;;;;;;;17.60;11.32;;;;;;;6.42;54.95;99660.66;4451087;32;34588;-64
2022/04/03 11:10:50;;;;;;;16.73;10.63;;;;;;;6.88;55.49;99669.34;4452596;32;32807;-64
2022/04/03 11:13:21;;;;;;;17.83;9.80;;;;;;;7.20;54.37;99662.53;4446564;32;33891;-65
2022/04/03 11:15:50;;;;;;;15.75;10.15;;;;;;;6.92;56.32;99665.25;4431654;32;34619;-65
2022/04/03 11:18:28;;;;;;;17.12;10.88;;;;;;;6.57;54.70;99666.69;4453419;32;33854;-64
2022/04/03 11:21:14;;;;;;;18.98;11.23;;;;;;;6.76;55.51;99684.09;4445152;32;33989;-65
2022/04/03 11:24:06;;;;;;;14.27;9.77;;;;;;;6.74;54.90;99680.56;4452050;32;33635;-64
2022/04/03 11:26:35;;;;;;;14.73;7.53;;;;;;;6.70;51.95;99694.00;4450162;32;33480;-63
2022/04/03 11:29:05;;;;;;;14.43;7.70;;;;;;;6.42;51.45;99671.81;4443319;32;34671;-64
2022/04/03 11:31:35;;;;;;;16.83;8.88;;;;;;;6.15;53.43;99688.19;4456618;32;33721;-64
2022/04/03 11:34:06;;;;;;;13.57;8.70;;;;;;;6.54;52.84;99686.22;4461177;32;34653;-64
2022/04/03 11:36:34;;;;;;;16.62;9.40;;;;;;;6.55;53.85;99693.12;4446508;32;33734;-64
2022/04/03 11:39:05;;;;;;;18.90;10.05;;;;;;;6.88;54.21;99684.78;4444803;32;34467;-63